sensor_id;sensor_type;location;lat;lon;timestamp;pressure;altitude;pressure_sealevel;temperature;humidity
26657;BME280;14279;50.010;8.260;2023-02-11T00:01:33;102489.69;;;4.29;72.56
26657;BME280;14279;50.010;8.260;2023-02-11T00:03:59;102499.41;;;4.47;71.96
26657;BME280;14279;50.010;8.260;2023-02-11T00:06:25;102499.41;;;4.48;71.69
26657;BME280;14279;50.010;8.260;2023-02-11T00:08:52;102483.22;;;4.57;71.66
26657;BME280;14279;50.010;8.260;2023-02-11T00:11:19;102492.66;;;4.58;71.40
26657;BME280;14279;50.010;8.260;2023-02-11T00:13:44;102488.22;;;4.45;72.03
26657;BME280;14279;50.010;8.260;2023-02-11T00:16:13;102490.16;;;4.63;71.55
26657;BME280;14279;50.010;8.260;2023-02-11T00:18:39;102491.91;;;4.64;71.15
26657;BME280;14279;50.010;8.260;2023-02-11T00:21:16;102486.81;;;4.70;71.04
26657;BME280;14279;50.010;8.260;2023-02-11T00:23:42;102485.22;;;4.81;70.82
26657;BME280;14279;50.010;8.260;2023-02-11T00:26:19;102479.19;;;4.79;71.11
26657;BME280;14279;50.010;8.260;2023-02-11T00:28:46;102482.53;;;4.71;70.94
26657;BME280;14279;50.010;8.260;2023-02-11T00:31:13;102478.34;;;4.82;70.94
26657;BME280;14279;50.010;8.260;2023-02-11T00:33:38;102489.63;;;4.90;70.81
26657;BME280;14279;50.010;8.260;2023-02-11T00:36:05;102485.28;;;4.86;70.71
26657;BME280;14279;50.010;8.260;2023-02-11T00:38:31;102493.69;;;4.68;71.49
26657;BME280;14279;50.010;8.260;2023-02-11T00:40:56;102482.22;;;4.47;72.29
26657;BME280;14279;50.010;8.260;2023-02-11T00:43:21;102478.72;;;4.42;72.92
26657;BME280;14279;50.010;8.260;2023-02-11T00:45:46;102464.91;;;4.39;73.04
26657;BME280;14279;50.010;8.260;2023-02-11T00:48:12;102469.97;;;4.31;73.28
26657;BME280;14279;50.010;8.260;2023-02-11T00:50:38;102471.78;;;4.38;73.46
26657;BME280;14279;50.010;8.260;2023-02-11T00:53:03;102464.91;;;4.39;73.55
26657;BME280;14279;50.010;8.260;2023-02-11T00:55:29;102464.00;;;4.36;73.57
26657;BME280;14279;50.010;8.260;2023-02-11T00:57:55;102463.22;;;4.39;73.25
26657;BME280;14279;50.010;8.260;2023-02-11T01:00:21;102461.56;;;4.46;73.30
26657;BME280;14279;50.010;8.260;2023-02-11T01:02:46;102471.09;;;4.51;73.48
26657;BME280;14279;50.010;8.260;2023-02-11T01:05:11;102465.97;;;4.55;73.47
26657;BME280;14279;50.010;8.260;2023-02-11T01:07:36;102469.50;;;4.60;73.02
26657;BME280;14279;50.010;8.260;2023-02-11T01:10:02;102468.66;;;4.62;72.73
26657;BME280;14279;50.010;8.260;2023-02-11T01:12:28;102461.84;;;4.68;72.82
26657;BME280;14279;50.010;8.260;2023-02-11T01:14:53;102460.94;;;4.64;73.11
26657;BME280;14279;50.010;8.260;2023-02-11T01:17:18;102466.88;;;4.57;73.16
26657;BME280;14279;50.010;8.260;2023-02-11T01:19:44;102469.38;;;4.50;74.01
26657;BME280;14279;50.010;8.260;2023-02-11T01:22:09;102461.56;;;4.47;74.17
26657;BME280;14279;50.010;8.260;2023-02-11T01:24:34;102460.88;;;4.59;73.61
26657;BME280;14279;50.010;8.260;2023-02-11T01:26:59;102456.56;;;4.58;73.57
26657;BME280;14279;50.010;8.260;2023-02-11T01:29:25;102451.53;;;4.68;72.83
26657;BME280;14279;50.010;8.260;2023-02-11T01:31:50;102448.09;;;4.70;72.66
26657;BME280;14279;50.010;8.260;2023-02-11T01:34:16;102447.16;;;4.63;73.01
26657;BME280;14279;50.010;8.260;2023-02-11T01:36:41;102454.09;;;4.68;73.18
26657;BME280;14279;50.010;8.260;2023-02-11T01:39:07;102458.28;;;4.59;73.03
26657;BME280;14279;50.010;8.260;2023-02-11T01:41:35;102455.63;;;4.51;73.95
26657;BME280;14279;50.010;8.260;2023-02-11T01:46:51;102451.34;;;4.54;73.91
26657;BME280;14279;50.010;8.260;2023-02-11T01:49:37;102443.56;;;4.50;74.11
26657;BME280;14279;50.010;8.260;2023-02-11T01:52:17;102439.16;;;4.42;74.43
26657;BME280;14279;50.010;8.260;2023-02-11T01:54:53;102432.19;;;4.34;74.66
26657;BME280;14279;50.010;8.260;2023-02-11T01:57:41;102434.81;;;4.36;74.56
26657;BME280;14279;50.010;8.260;2023-02-11T02:08:07;102412.44;;;4.35;74.48
26657;BME280;14279;50.010;8.260;2023-02-11T02:10:35;102420.19;;;4.35;74.89
26657;BME280;14279;50.010;8.260;2023-02-11T02:13:03;102425.25;;;4.29;74.66
26657;BME280;14279;50.010;8.260;2023-02-11T02:15:33;102427.56;;;4.10;74.74
26657;BME280;14279;50.010;8.260;2023-02-11T02:18:20;102426.78;;;4.14;74.98
26657;BME280;14279;50.010;8.260;2023-02-11T02:21:21;102411.34;;;4.17;74.48
26657;BME280;14279;50.010;8.260;2023-02-11T02:24:12;102406.34;;;4.28;74.21
26657;BME280;14279;50.010;8.260;2023-02-11T02:37:42;102397.06;;;4.43;74.39
26657;BME280;14279;50.010;8.260;2023-02-11T02:40:16;102399.72;;;4.49;73.27
26657;BME280;14279;50.010;8.260;2023-02-11T02:42:44;102408.25;;;4.46;73.71
26657;BME280;14279;50.010;8.260;2023-02-11T02:45:10;102405.72;;;4.48;73.85
26657;BME280;14279;50.010;8.260;2023-02-11T02:47:36;102409.75;;;4.27;74.51
26657;BME280;14279;50.010;8.260;2023-02-11T02:50:03;102415.00;;;4.35;74.71
26657;BME280;14279;50.010;8.260;2023-02-11T02:55:33;102402.03;;;4.27;75.09
26657;BME280;14279;50.010;8.260;2023-02-11T02:58:24;102407.94;;;4.20;75.44
26657;BME280;14279;50.010;8.260;2023-02-11T03:01:12;102407.16;;;4.26;75.61
26657;BME280;14279;50.010;8.260;2023-02-11T03:04:29;102392.59;;;4.31;75.45
26657;BME280;14279;50.010;8.260;2023-02-11T03:07:13;102392.66;;;4.32;75.15
26657;BME280;14279;50.010;8.260;2023-02-11T03:09:54;102390.06;;;4.34;75.57
26657;BME280;14279;50.010;8.260;2023-02-11T03:12:21;102395.31;;;4.40;76.02
26657;BME280;14279;50.010;8.260;2023-02-11T03:14:50;102387.66;;;4.49;74.89
26657;BME280;14279;50.010;8.260;2023-02-11T03:17:15;102395.53;;;4.57;74.27
26657;BME280;14279;50.010;8.260;2023-02-11T03:19:43;102402.22;;;4.41;72.79
26657;BME280;14279;50.010;8.260;2023-02-11T03:22:15;102400.28;;;4.26;73.23
26657;BME280;14279;50.010;8.260;2023-02-11T03:24:42;102392.56;;;4.28;73.59
26657;BME280;14279;50.010;8.260;2023-02-11T03:27:20;102386.59;;;4.30;73.44
26657;BME280;14279;50.010;8.260;2023-02-11T03:29:51;102386.78;;;4.46;73.07
26657;BME280;14279;50.010;8.260;2023-02-11T03:34:55;102376.28;;;4.32;73.71
26657;BME280;14279;50.010;8.260;2023-02-11T03:37:38;102364.28;;;4.35;73.95
26657;BME280;14279;50.010;8.260;2023-02-11T03:40:11;102366.88;;;4.34;74.42
26657;BME280;14279;50.010;8.260;2023-02-11T03:42:42;102372.22;;;4.51;74.03
26657;BME280;14279;50.010;8.260;2023-02-11T03:45:12;102372.41;;;4.66;72.98
26657;BME280;14279;50.010;8.260;2023-02-11T03:47:44;102366.47;;;4.75;72.79
26657;BME280;14279;50.010;8.260;2023-02-11T03:50:12;102346.72;;;4.79;72.72
26657;BME280;14279;50.010;8.260;2023-02-11T03:52:39;102340.72;;;4.81;72.46
26657;BME280;14279;50.010;8.260;2023-02-11T03:55:09;102337.38;;;4.90;72.78
26657;BME280;14279;50.010;8.260;2023-02-11T03:57:35;102330.47;;;4.88;72.47
26657;BME280;14279;50.010;8.260;2023-02-11T04:00:01;102315.84;;;4.88;72.75
26657;BME280;14279;50.010;8.260;2023-02-11T04:02:29;102309.84;;;4.91;72.80
26657;BME280;14279;50.010;8.260;2023-02-11T04:04:55;102314.06;;;4.82;73.40
26657;BME280;14279;50.010;8.260;2023-02-11T04:07:21;102295.13;;;4.79;72.98
26657;BME280;14279;50.010;8.260;2023-02-11T04:09:46;102295.94;;;4.76;73.09
26657;BME280;14279;50.010;8.260;2023-02-11T04:12:12;102301.00;;;4.65;72.89
26657;BME280;14279;50.010;8.260;2023-02-11T04:14:37;102296.75;;;4.72;73.12
26657;BME280;14279;50.010;8.260;2023-02-11T04:17:02;102296.75;;;4.71;73.05
26657;BME280;14279;50.010;8.260;2023-02-11T04:19:28;102318.22;;;4.65;73.60
26657;BME280;14279;50.010;8.260;2023-02-11T04:21:53;102322.31;;;4.46;74.19
26657;BME280;14279;50.010;8.260;2023-02-11T04:24:18;102323.72;;;4.19;75.55
26657;BME280;14279;50.010;8.260;2023-02-11T04:26:43;102330.44;;;4.04;76.54
26657;BME280;14279;50.010;8.260;2023-02-11T04:29:09;102340.50;;;3.87;77.18
26657;BME280;14279;50.010;8.260;2023-02-11T04:31:34;102333.81;;;4.00;76.49
26657;BME280;14279;50.010;8.260;2023-02-11T04:33:59;102336.47;;;4.06;76.74
26657;BME280;14279;50.010;8.260;2023-02-11T04:36:24;102333.25;;;4.28;75.79
26657;BME280;14279;50.010;8.260;2023-02-11T04:38:50;102335.84;;;4.26;75.64
26657;BME280;14279;50.010;8.260;2023-02-11T04:41:15;102343.69;;;4.39;75.47
26657;BME280;14279;50.010;8.260;2023-02-11T04:43:40;102347.13;;;4.36;74.99
26657;BME280;14279;50.010;8.260;2023-02-11T04:46:05;102353.88;;;4.28;75.51
26657;BME280;14279;50.010;8.260;2023-02-11T04:48:30;102359.84;;;4.24;75.62
26657;BME280;14279;50.010;8.260;2023-02-11T04:50:56;102353.63;;;4.06;75.78
26657;BME280;14279;50.010;8.260;2023-02-11T04:53:21;102348.47;;;4.06;76.09
26657;BME280;14279;50.010;8.260;2023-02-11T04:55:50;102351.09;;;4.09;77.04
26657;BME280;14279;50.010;8.260;2023-02-11T04:58:16;102344.19;;;4.08;76.43
26657;BME280;14279;50.010;8.260;2023-02-11T05:00:41;102345.94;;;4.11;76.69
26657;BME280;14279;50.010;8.260;2023-02-11T05:03:07;102332.22;;;4.12;76.33
26657;BME280;14279;50.010;8.260;2023-02-11T05:05:32;102340.88;;;4.17;76.10
26657;BME280;14279;50.010;8.260;2023-02-11T05:07:57;102333.97;;;4.14;76.06
26657;BME280;14279;50.010;8.260;2023-02-11T05:10:22;102325.44;;;4.18;76.36
26657;BME280;14279;50.010;8.260;2023-02-11T05:12:48;102329.75;;;4.22;75.93
26657;BME280;14279;50.010;8.260;2023-02-11T05:15:14;102324.66;;;4.24;75.76
26657;BME280;14279;50.010;8.260;2023-02-11T05:17:39;102310.06;;;4.28;75.93
26657;BME280;14279;50.010;8.260;2023-02-11T05:20:04;102296.31;;;4.29;75.77
26657;BME280;14279;50.010;8.260;2023-02-11T05:22:30;102282.59;;;4.30;75.81
26657;BME280;14279;50.010;8.260;2023-02-11T05:24:55;102280.88;;;4.30;75.39
26657;BME280;14279;50.010;8.260;2023-02-11T05:27:20;102278.34;;;4.36;75.06
26657;BME280;14279;50.010;8.260;2023-02-11T05:29:45;102280.97;;;4.38;75.23
26657;BME280;14279;50.010;8.260;2023-02-11T05:32:11;102294.75;;;4.40;74.96
26657;BME280;14279;50.010;8.260;2023-02-11T05:34:36;102296.25;;;4.22;76.16
26657;BME280;14279;50.010;8.260;2023-02-11T05:37:01;102292.81;;;4.22;76.15
26657;BME280;14279;50.010;8.260;2023-02-11T05:39:27;102298.09;;;4.33;75.53
26657;BME280;14279;50.010;8.260;2023-02-11T05:41:52;102305.03;;;4.39;75.67
26657;BME280;14279;50.010;8.260;2023-02-11T05:44:17;102305.78;;;4.28;75.96
26657;BME280;14279;50.010;8.260;2023-02-11T05:46:42;102304.88;;;4.23;77.00
26657;BME280;14279;50.010;8.260;2023-02-11T05:49:08;102313.28;;;4.08;77.56
26657;BME280;14279;50.010;8.260;2023-02-11T05:51:33;102321.81;;;4.04;77.14
26657;BME280;14279;50.010;8.260;2023-02-11T05:53:58;102331.03;;;3.86;77.21
26657;BME280;14279;50.010;8.260;2023-02-11T05:56:23;102328.41;;;3.82;77.63
26657;BME280;14279;50.010;8.260;2023-02-11T05:58:48;102319.50;;;3.59;77.58
26657;BME280;14279;50.010;8.260;2023-02-11T06:01:14;102324.59;;;3.55;77.54
26657;BME280;14279;50.010;8.260;2023-02-11T06:03:39;102323.03;;;3.66;77.98
26657;BME280;14279;50.010;8.260;2023-02-11T06:06:09;102320.44;;;3.65;77.65
26657;BME280;14279;50.010;8.260;2023-02-11T06:08:34;102324.69;;;3.63;77.80
26657;BME280;14279;50.010;8.260;2023-02-11T06:10:59;102328.06;;;3.58;77.62
26657;BME280;14279;50.010;8.260;2023-02-11T06:13:24;102340.84;;;3.51;77.56
26657;BME280;14279;50.010;8.260;2023-02-11T06:15:56;102345.16;;;3.52;78.11
26657;BME280;14279;50.010;8.260;2023-02-11T06:18:22;102339.06;;;3.46;77.71
26657;BME280;14279;50.010;8.260;2023-02-11T06:20:47;102342.34;;;3.38;77.10
26657;BME280;14279;50.010;8.260;2023-02-11T06:23:12;102331.13;;;3.33;77.07
26657;BME280;14279;50.010;8.260;2023-02-11T06:25:38;102339.66;;;3.30;77.54
26657;BME280;14279;50.010;8.260;2023-02-11T06:28:03;102339.91;;;3.45;76.84
26657;BME280;14279;50.010;8.260;2023-02-11T06:30:28;102342.53;;;3.50;77.06
26657;BME280;14279;50.010;8.260;2023-02-11T06:32:53;102351.03;;;3.43;77.44
26657;BME280;14279;50.010;8.260;2023-02-11T06:35:19;102345.81;;;3.40;77.34
26657;BME280;14279;50.010;8.260;2023-02-11T06:37:44;102348.28;;;3.34;77.43
26657;BME280;14279;50.010;8.260;2023-02-11T06:40:11;102345.84;;;3.41;77.27
26657;BME280;14279;50.010;8.260;2023-02-11T06:42:36;102351.06;;;3.46;76.76
26657;BME280;14279;50.010;8.260;2023-02-11T06:45:05;102352.03;;;3.53;76.69
26657;BME280;14279;50.010;8.260;2023-02-11T06:47:32;102342.34;;;3.96;76.34
26657;BME280;14279;50.010;8.260;2023-02-11T06:49:58;102345.00;;;4.04;75.04
26657;BME280;14279;50.010;8.260;2023-02-11T06:52:23;102336.34;;;3.99;74.63
26657;BME280;14279;50.010;8.260;2023-02-11T06:55:00;102328.88;;;4.17;74.50
26657;BME280;14279;50.010;8.260;2023-02-11T06:57:26;102322.03;;;4.21;73.88
26657;BME280;14279;50.010;8.260;2023-02-11T07:07:07;102326.63;;;4.48;72.72
26657;BME280;14279;50.010;8.260;2023-02-11T07:09:57;102318.09;;;4.56;72.07
26657;BME280;14279;50.010;8.260;2023-02-11T07:12:40;102326.81;;;4.64;72.30
26657;BME280;14279;50.010;8.260;2023-02-11T07:15:06;102326.84;;;4.70;72.24
26657;BME280;14279;50.010;8.260;2023-02-11T07:17:33;102314.84;;;4.74;71.57
26657;BME280;14279;50.010;8.260;2023-02-11T07:19:58;102309.69;;;4.74;71.79
26657;BME280;14279;50.010;8.260;2023-02-11T07:22:24;102315.00;;;4.94;71.42
26657;BME280;14279;50.010;8.260;2023-02-11T07:24:49;102316.72;;;4.89;70.88
26657;BME280;14279;50.010;8.260;2023-02-11T07:33:41;102331.66;;;4.36;72.98
26657;BME280;14279;50.010;8.260;2023-02-11T07:36:10;102342.19;;;3.87;74.94
26657;BME280;14279;50.010;8.260;2023-02-11T07:38:59;102337.09;;;3.90;75.03
26657;BME280;14279;50.010;8.260;2023-02-11T07:43:55;102346.69;;;4.00;74.19
26657;BME280;14279;50.010;8.260;2023-02-11T07:46:22;102348.66;;;4.21;73.51
26657;BME280;14279;50.010;8.260;2023-02-11T07:48:48;102344.25;;;4.13;73.78
26657;BME280;14279;50.010;8.260;2023-02-11T07:54:35;102349.44;;;4.14;73.51
26657;BME280;14279;50.010;8.260;2023-02-11T08:00:16;102347.00;;;4.27;72.60
26657;BME280;14279;50.010;8.260;2023-02-11T08:02:41;102347.25;;;4.48;72.53
26657;BME280;14279;50.010;8.260;2023-02-11T08:05:07;102351.72;;;4.63;71.77
26657;BME280;14279;50.010;8.260;2023-02-11T08:07:32;102351.75;;;4.66;71.30
26657;BME280;14279;50.010;8.260;2023-02-11T08:09:58;102360.25;;;4.58;72.16
26657;BME280;14279;50.010;8.260;2023-02-11T08:12:23;102365.19;;;4.38;72.23
26657;BME280;14279;50.010;8.260;2023-02-11T08:14:48;102366.66;;;4.15;73.28
26657;BME280;14279;50.010;8.260;2023-02-11T08:17:13;102358.16;;;4.26;73.38
26657;BME280;14279;50.010;8.260;2023-02-11T08:19:39;102363.66;;;4.52;72.20
26657;BME280;14279;50.010;8.260;2023-02-11T08:22:04;102354.13;;;4.49;72.65
26657;BME280;14279;50.010;8.260;2023-02-11T08:24:37;102360.16;;;4.48;72.74
26657;BME280;14279;50.010;8.260;2023-02-11T08:27:03;102364.31;;;4.37;72.96
26657;BME280;14279;50.010;8.260;2023-02-11T08:29:34;102361.09;;;4.57;72.38
26657;BME280;14279;50.010;8.260;2023-02-11T08:32:00;102369.88;;;4.73;71.73
26657;BME280;14279;50.010;8.260;2023-02-11T08:34:25;102366.47;;;4.74;71.37
26657;BME280;14279;50.010;8.260;2023-02-11T08:36:50;102378.59;;;4.81;71.50
26657;BME280;14279;50.010;8.260;2023-02-11T08:39:18;102382.09;;;4.88;70.99
26657;BME280;14279;50.010;8.260;2023-02-11T08:41:45;102375.09;;;4.77;71.60
26657;BME280;14279;50.010;8.260;2023-02-11T08:44:14;102375.09;;;4.77;71.16
26657;BME280;14279;50.010;8.260;2023-02-11T08:46:39;102377.03;;;5.00;70.61
26657;BME280;14279;50.010;8.260;2023-02-11T08:49:05;102373.59;;;5.01;70.87
26657;BME280;14279;50.010;8.260;2023-02-11T08:51:30;102375.38;;;5.08;70.78
26657;BME280;14279;50.010;8.260;2023-02-11T08:53:56;102379.84;;;5.23;70.39
26657;BME280;14279;50.010;8.260;2023-02-11T08:56:22;102376.47;;;5.37;70.35
26657;BME280;14279;50.010;8.260;2023-02-11T08:58:48;102381.72;;;5.48;69.35
26657;BME280;14279;50.010;8.260;2023-02-11T09:01:32;102384.41;;;5.62;69.59
26657;BME280;14279;50.010;8.260;2023-02-11T09:03:57;102388.81;;;5.78;68.68
26657;BME280;14279;50.010;8.260;2023-02-11T09:06:24;102398.06;;;5.44;70.26
26657;BME280;14279;50.010;8.260;2023-02-11T09:09:00;102394.50;;;5.29;70.97
26657;BME280;14279;50.010;8.260;2023-02-11T09:11:34;102395.25;;;5.19;71.04
26657;BME280;14279;50.010;8.260;2023-02-11T09:14:03;102394.41;;;5.20;70.71
26657;BME280;14279;50.010;8.260;2023-02-11T09:17:16;102396.22;;;5.32;70.23
26657;BME280;14279;50.010;8.260;2023-02-11T09:19:54;102388.69;;;5.55;70.33
26657;BME280;14279;50.010;8.260;2023-02-11T09:48:19;102417.88;;;7.29;65.37
26657;BME280;14279;50.010;8.260;2023-02-11T09:51:09;102417.03;;;7.55;64.76
26657;BME280;14279;50.010;8.260;2023-02-11T09:54:53;102413.50;;;7.01;66.47
26657;BME280;14279;50.010;8.260;2023-02-11T09:57:20;102424.69;;;6.86;67.46
26657;BME280;14279;50.010;8.260;2023-02-11T09:59:46;102427.31;;;7.03;66.90
26657;BME280;14279;50.010;8.260;2023-02-11T10:05:36;102423.03;;;7.22;67.05
26657;BME280;14279;50.010;8.260;2023-02-11T10:08:13;102424.78;;;7.42;66.38
26657;BME280;14279;50.010;8.260;2023-02-11T10:10:53;102425.66;;;7.40;66.13
26657;BME280;14279;50.010;8.260;2023-02-11T10:16:43;102430.81;;;7.21;66.93
26657;BME280;14279;50.010;8.260;2023-02-11T10:22:36;102424.78;;;7.58;66.38
26657;BME280;14279;50.010;8.260;2023-02-11T10:25:25;102431.69;;;7.46;66.17
26657;BME280;14279;50.010;8.260;2023-02-11T10:27:54;102430.84;;;7.57;66.03
26657;BME280;14279;50.010;8.260;2023-02-11T10:30:28;102420.44;;;7.38;66.65
26657;BME280;14279;50.010;8.260;2023-02-11T10:36:12;102422.19;;;7.31;67.39
26657;BME280;14279;50.010;8.260;2023-02-11T10:38:38;102417.00;;;7.24;67.77
26657;BME280;14279;50.010;8.260;2023-02-11T10:41:04;102422.19;;;7.47;66.59
26657;BME280;14279;50.010;8.260;2023-02-11T11:00:36;102406.56;;;6.86;70.19
26657;BME280;14279;50.010;8.260;2023-02-11T11:03:16;102406.63;;;7.20;69.88
26657;BME280;14279;50.010;8.260;2023-02-11T11:06:01;102404.03;;;7.03;70.34
26657;BME280;14279;50.010;8.260;2023-02-11T11:11:12;102400.59;;;7.21;70.08
26657;BME280;14279;50.010;8.260;2023-02-11T11:16:28;102398.00;;;7.29;69.62
26657;BME280;14279;50.010;8.260;2023-02-11T11:21:40;102391.94;;;7.16;69.87
26657;BME280;14279;50.010;8.260;2023-02-11T11:24:23;102397.13;;;7.30;69.36
26657;BME280;14279;50.010;8.260;2023-02-11T11:26:54;102391.09;;;7.37;69.22
26657;BME280;14279;50.010;8.260;2023-02-11T11:29:32;102390.25;;;7.34;69.52
26657;BME280;14279;50.010;8.260;2023-02-11T11:32:45;102389.34;;;7.72;69.02
26657;BME280;14279;50.010;8.260;2023-02-11T11:34:49;102383.94;;;8.43;66.74
26657;BME280;14279;50.010;8.260;2023-02-11T11:37:29;102391.03;;;7.87;68.86
26657;BME280;14279;50.010;8.260;2023-02-11T11:39:58;102394.34;;;8.31;68.08
26657;BME280;14279;50.010;8.260;2023-02-11T11:42:31;102392.59;;;8.42;66.92
26657;BME280;14279;50.010;8.260;2023-02-11T11:45:23;102391.34;;;9.12;64.93
26657;BME280;14279;50.010;8.260;2023-02-11T11:48:03;102392.28;;;9.03;64.65
26657;BME280;14279;50.010;8.260;2023-02-11T11:50:34;102391.53;;;8.85;65.05
26657;BME280;14279;50.010;8.260;2023-02-11T11:53:15;102402.19;;;8.25;67.64
26657;BME280;14279;50.010;8.260;2023-02-11T11:56:05;102404.75;;;8.26;67.39
26657;BME280;14279;50.010;8.260;2023-02-11T11:58:34;102398.66;;;8.38;67.70
26657;BME280;14279;50.010;8.260;2023-02-11T12:01:11;102395.13;;;8.60;67.13
26657;BME280;14279;50.010;8.260;2023-02-11T12:06:34;102388.31;;;8.31;68.78
26657;BME280;14279;50.010;8.260;2023-02-11T12:09:23;102384.09;;;8.02;69.70
26657;BME280;14279;50.010;8.260;2023-02-11T12:15:12;102387.41;;;8.39;68.21
26657;BME280;14279;50.010;8.260;2023-02-11T12:17:56;102391.72;;;8.47;68.01
26657;BME280;14279;50.010;8.260;2023-02-11T12:20:31;102390.78;;;8.66;67.43
26657;BME280;14279;50.010;8.260;2023-02-11T12:23:27;102387.25;;;8.78;66.91
26657;BME280;14279;50.010;8.260;2023-02-11T12:28:57;102387.41;;;8.39;67.78
26657;BME280;14279;50.010;8.260;2023-02-11T12:37:09;102378.63;;;8.75;67.02
26657;BME280;14279;50.010;8.260;2023-02-11T12:39:40;102374.09;;;9.03;66.29
26657;BME280;14279;50.010;8.260;2023-02-11T12:42:23;102374.22;;;8.83;67.15
26657;BME280;14279;50.010;8.260;2023-02-11T12:47:58;102381.88;;;9.06;66.36
26657;BME280;14279;50.010;8.260;2023-02-11T12:55:43;102367.47;;;8.48;70.22
26657;BME280;14279;50.010;8.260;2023-02-11T12:58:22;102365.00;;;8.17;71.14
26657;BME280;14279;50.010;8.260;2023-02-11T13:00:53;102365.78;;;8.40;71.17
26657;BME280;14279;50.010;8.260;2023-02-11T13:06:26;102369.31;;;8.22;72.12
26657;BME280;14279;50.010;8.260;2023-02-11T13:08:58;102365.81;;;8.30;71.58
26657;BME280;14279;50.010;8.260;2023-02-11T13:11:27;102365.03;;;8.09;72.37
26657;BME280;14279;50.010;8.260;2023-02-11T13:14:01;102355.56;;;7.97;72.51
26657;BME280;14279;50.010;8.260;2023-02-11T13:16:41;102349.41;;;8.24;72.15
26657;BME280;14279;50.010;8.260;2023-02-11T13:22:12;102347.63;;;8.34;71.66
26657;BME280;14279;50.010;8.260;2023-02-11T13:24:43;102342.38;;;8.47;71.42
26657;BME280;14279;50.010;8.260;2023-02-11T13:27:35;102339.75;;;8.57;70.81
26657;BME280;14279;50.010;8.260;2023-02-11T13:38:21;102328.97;;;9.12;67.88
26657;BME280;14279;50.010;8.260;2023-02-11T13:43:40;102328.16;;;9.03;68.47
26657;BME280;14279;50.010;8.260;2023-02-11T13:46:10;102338.59;;;9.02;68.54
26657;BME280;14279;50.010;8.260;2023-02-11T13:48:47;102338.50;;;9.14;67.83
26657;BME280;14279;50.010;8.260;2023-02-11T13:51:15;102339.41;;;9.10;68.10
26657;BME280;14279;50.010;8.260;2023-02-11T13:53:48;102339.41;;;9.09;68.67
26657;BME280;14279;50.010;8.260;2023-02-11T13:56:39;102329.72;;;9.25;67.87
26657;BME280;14279;50.010;8.260;2023-02-11T14:02:22;102345.81;;;8.58;69.56
26657;BME280;14279;50.010;8.260;2023-02-11T14:10:54;102347.53;;;8.56;70.10
26657;BME280;14279;50.010;8.260;2023-02-11T14:13:33;102343.13;;;8.77;69.68
26657;BME280;14279;50.010;8.260;2023-02-11T14:16:19;102340.59;;;8.63;70.11
26657;BME280;14279;50.010;8.260;2023-02-11T14:26:46;102331.09;;;8.60;69.98
26657;BME280;14279;50.010;8.260;2023-02-11T14:29:25;102336.19;;;8.74;69.84
26657;BME280;14279;50.010;8.260;2023-02-11T14:31:59;102341.34;;;8.79;69.73
26657;BME280;14279;50.010;8.260;2023-02-11T14:39:57;102335.06;;;9.11;68.45
26657;BME280;14279;50.010;8.260;2023-02-11T14:42:27;102338.84;;;8.63;70.25
26657;BME280;14279;50.010;8.260;2023-02-11T14:44:56;102347.31;;;8.93;69.33
26657;BME280;14279;50.010;8.260;2023-02-11T14:47:27;102333.44;;;8.97;68.86
26657;BME280;14279;50.010;8.260;2023-02-11T14:49:54;102336.69;;;9.24;68.47
26657;BME280;14279;50.010;8.260;2023-02-11T14:52:25;102339.19;;;9.33;68.06
26657;BME280;14279;50.010;8.260;2023-02-11T14:55:03;102354.09;;;9.14;68.02
26657;BME280;14279;50.010;8.260;2023-02-11T14:57:29;102355.06;;;8.98;68.92
26657;BME280;14279;50.010;8.260;2023-02-11T15:00:00;102355.72;;;9.25;68.19
26657;BME280;14279;50.010;8.260;2023-02-11T15:02:35;102361.78;;;9.24;67.97
26657;BME280;14279;50.010;8.260;2023-02-11T15:07:53;102360.91;;;9.28;67.59
26657;BME280;14279;50.010;8.260;2023-02-11T15:10:40;102353.16;;;9.22;67.94
26657;BME280;14279;50.010;8.260;2023-02-11T15:13:06;102351.50;;;9.13;68.37
26657;BME280;14279;50.010;8.260;2023-02-11T15:15:33;102351.44;;;9.19;68.20
26657;BME280;14279;50.010;8.260;2023-02-11T15:18:01;102355.09;;;8.93;68.54
26657;BME280;14279;50.010;8.260;2023-02-11T15:20:30;102351.47;;;9.16;68.34
26657;BME280;14279;50.010;8.260;2023-02-11T15:22:58;102360.88;;;9.29;67.88
26657;BME280;14279;50.010;8.260;2023-02-11T15:25:25;102360.03;;;9.27;67.72
26657;BME280;14279;50.010;8.260;2023-02-11T15:27:54;102366.81;;;9.42;67.41
26657;BME280;14279;50.010;8.260;2023-02-11T15:32:47;102367.72;;;9.40;67.74
26657;BME280;14279;50.010;8.260;2023-02-11T15:35:12;102373.81;;;9.39;67.91
26657;BME280;14279;50.010;8.260;2023-02-11T15:37:38;102370.25;;;9.49;67.39
26657;BME280;14279;50.010;8.260;2023-02-11T15:40:16;102375.47;;;9.44;67.49
26657;BME280;14279;50.010;8.260;2023-02-11T15:43:18;102376.59;;;9.14;68.65
26657;BME280;14279;50.010;8.260;2023-02-11T15:45:53;102378.34;;;9.13;68.89
26657;BME280;14279;50.010;8.260;2023-02-11T15:48:24;102379.16;;;9.20;68.43
26657;BME280;14279;50.010;8.260;2023-02-11T15:51:01;102374.72;;;9.31;68.48
26657;BME280;14279;50.010;8.260;2023-02-11T15:53:36;102381.53;;;9.43;67.53
26657;BME280;14279;50.010;8.260;2023-02-11T15:58:38;102391.06;;;9.49;67.71
26657;BME280;14279;50.010;8.260;2023-02-11T16:01:05;102385.84;;;9.47;67.72
26657;BME280;14279;50.010;8.260;2023-02-11T16:03:31;102388.53;;;9.40;67.94
26657;BME280;14279;50.010;8.260;2023-02-11T16:06:26;102389.34;;;9.43;67.96
26657;BME280;14279;50.010;8.260;2023-02-11T16:11:53;102385.91;;;9.41;67.87
26657;BME280;14279;50.010;8.260;2023-02-11T16:17:12;102386.72;;;9.46;67.82
26657;BME280;14279;50.010;8.260;2023-02-11T16:19:48;102385.09;;;9.36;68.16
26657;BME280;14279;50.010;8.260;2023-02-11T16:22:18;102396.28;;;9.43;67.96
26657;BME280;14279;50.010;8.260;2023-02-11T16:24:48;102398.91;;;9.40;68.06
26657;BME280;14279;50.010;8.260;2023-02-11T16:29:53;102401.47;;;9.44;67.74
26657;BME280;14279;50.010;8.260;2023-02-11T16:32:26;102401.47;;;9.44;68.19